sensor_id;sensor_type;location;lat;lon;timestamp;pressure;altitude;pressure_sealevel;temperature;humidity
75013;BME280;63567;49.956;20.130;2024-01-07T00:01:13;96285.63;;;0.52;92.63
75013;BME280;63567;49.956;20.130;2024-01-07T00:03:41;96277.63;;;0.45;92.51
75013;BME280;63567;49.956;20.130;2024-01-07T00:06:10;96289.63;;;0.46;92.88
75013;BME280;63567;49.956;20.130;2024-01-07T00:08:35;96286.34;;;0.44;92.47
75013;BME280;63567;49.956;20.130;2024-01-07T00:11:00;96288.53;;;0.39;92.57
75013;BME280;63567;49.956;20.130;2024-01-07T00:13:26;96296.03;;;0.42;92.78
75013;BME280;63567;49.956;20.130;2024-01-07T00:15:51;96296.19;;;0.40;92.27
75013;BME280;63567;49.956;20.130;2024-01-07T00:18:18;96276.06;;;0.25;92.69
75013;BME280;63567;49.956;20.130;2024-01-07T00:20:44;96300.84;;;0.37;92.51
75013;BME280;63567;49.956;20.130;2024-01-07T00:23:09;96277.19;;;0.22;92.52
75013;BME280;63567;49.956;20.130;2024-01-07T00:25:34;96307.28;;;0.33;92.24
75013;BME280;63567;49.956;20.130;2024-01-07T00:27:59;96310.13;;;0.30;92.70
75013;BME280;63567;49.956;20.130;2024-01-07T00:30:25;96308.66;;;0.27;92.30
75013;BME280;63567;49.956;20.130;2024-01-07T00:32:50;96318.03;;;0.28;92.93
75013;BME280;63567;49.956;20.130;2024-01-07T00:35:16;96311.22;;;0.27;92.61
75013;BME280;63567;49.956;20.130;2024-01-07T00:37:41;96315.59;;;0.27;92.42
75013;BME280;63567;49.956;20.130;2024-01-07T00:40:07;96293.72;;;0.11;92.19
75013;BME280;63567;49.956;20.130;2024-01-07T00:42:33;96301.44;;;0.21;93.27
75013;BME280;63567;49.956;20.130;2024-01-07T00:44:58;96317.09;;;0.19;92.46
75013;BME280;63567;49.956;20.130;2024-01-07T00:47:23;96311.28;;;0.17;93.09
75013;BME280;63567;49.956;20.130;2024-01-07T00:49:48;96311.13;;;0.19;92.89
75013;BME280;63567;49.956;20.130;2024-01-07T00:52:14;96322.44;;;0.18;92.53
75013;BME280;63567;49.956;20.130;2024-01-07T00:54:39;96303.94;;;0.03;93.10
75013;BME280;63567;49.956;20.130;2024-01-07T00:57:04;96320.97;;;0.15;92.66
75013;BME280;63567;49.956;20.130;2024-01-07T00:59:29;96315.25;;;0.12;92.98
75013;BME280;63567;49.956;20.130;2024-01-07T01:01:55;96319.75;;;0.10;92.79
75013;BME280;63567;49.956;20.130;2024-01-07T01:04:20;96321.09;;;0.14;92.62
75013;BME280;63567;49.956;20.130;2024-01-07T01:06:46;96327.38;;;0.11;93.08
75013;BME280;63567;49.956;20.130;2024-01-07T01:09:12;96330.09;;;0.10;92.49
75013;BME280;63567;49.956;20.130;2024-01-07T01:11:37;96325.88;;;0.09;92.98
75013;BME280;63567;49.956;20.130;2024-01-07T01:14:03;96327.94;;;0.05;92.86
75013;BME280;63567;49.956;20.130;2024-01-07T01:16:28;96325.34;;;0.05;92.58
75013;BME280;63567;49.956;20.130;2024-01-07T01:18:53;96310.53;;;-0.12;92.57
75013;BME280;63567;49.956;20.130;2024-01-07T01:21:18;96306.97;;;-0.11;92.20
75013;BME280;63567;49.956;20.130;2024-01-07T01:23:44;96333.66;;;-0.01;92.89
75013;BME280;63567;49.956;20.130;2024-01-07T01:26:09;96331.38;;;-0.04;92.31
75013;BME280;63567;49.956;20.130;2024-01-07T01:28:34;96333.28;;;-0.06;92.08
75013;BME280;63567;49.956;20.130;2024-01-07T01:30:59;96302.69;;;-0.30;92.56
75013;BME280;63567;49.956;20.130;2024-01-07T01:33:25;96341.19;;;-0.08;92.69
75013;BME280;63567;49.956;20.130;2024-01-07T01:35:50;96325.81;;;-0.19;92.32
75013;BME280;63567;49.956;20.130;2024-01-07T01:38:15;96326.91;;;-0.22;92.53
75013;BME280;63567;49.956;20.130;2024-01-07T01:40:40;96339.94;;;-0.13;92.31
75013;BME280;63567;49.956;20.130;2024-01-07T01:43:06;96339.13;;;-0.14;92.10
75013;BME280;63567;49.956;20.130;2024-01-07T01:45:31;96348.00;;;-0.16;92.08
75013;BME280;63567;49.956;20.130;2024-01-07T01:47:56;96345.53;;;-0.18;92.32
75013;BME280;63567;49.956;20.130;2024-01-07T01:50:22;96339.84;;;-0.22;91.87
75013;BME280;63567;49.956;20.130;2024-01-07T01:52:48;96329.63;;;-0.33;91.90
75013;BME280;63567;49.956;20.130;2024-01-07T01:55:13;96344.47;;;-0.25;92.09
75013;BME280;63567;49.956;20.130;2024-01-07T01:57:39;96345.16;;;-0.23;91.77
75013;BME280;63567;49.956;20.130;2024-01-07T02:00:06;96348.84;;;-0.26;92.00
75013;BME280;63567;49.956;20.130;2024-01-07T02:02:32;96337.25;;;-0.31;91.99
75013;BME280;63567;49.956;20.130;2024-01-07T02:05:02;96350.88;;;-0.29;92.02
75013;BME280;63567;49.956;20.130;2024-01-07T02:07:29;96345.81;;;-0.31;92.36
75013;BME280;63567;49.956;20.130;2024-01-07T02:09:54;96345.16;;;-0.33;91.85
75013;BME280;63567;49.956;20.130;2024-01-07T02:12:20;96319.03;;;-0.59;91.85
75013;BME280;63567;49.956;20.130;2024-01-07T02:14:45;96354.97;;;-0.36;92.07
75013;BME280;63567;49.956;20.130;2024-01-07T02:17:10;96351.97;;;-0.42;91.34
75013;BME280;63567;49.956;20.130;2024-01-07T02:19:36;96357.13;;;-0.42;92.07
75013;BME280;63567;49.956;20.130;2024-01-07T02:22:01;96359.88;;;-0.43;91.71
75013;BME280;63567;49.956;20.130;2024-01-07T02:24:26;96350.88;;;-0.49;91.55
75013;BME280;63567;49.956;20.130;2024-01-07T02:26:52;96352.38;;;-0.46;92.30
75013;BME280;63567;49.956;20.130;2024-01-07T02:29:17;96350.06;;;-0.49;91.99
75013;BME280;63567;49.956;20.130;2024-01-07T02:31:42;96349.38;;;-0.51;91.55
75013;BME280;63567;49.956;20.130;2024-01-07T02:34:10;96359.06;;;-0.53;91.59
75013;BME280;63567;49.956;20.130;2024-01-07T02:36:35;96346.41;;;-0.56;91.50
75013;BME280;63567;49.956;20.130;2024-01-07T02:39:01;96350.34;;;-0.62;91.66
75013;BME280;63567;49.956;20.130;2024-01-07T02:41:26;96329.50;;;-0.70;91.51
75013;BME280;63567;49.956;20.130;2024-01-07T02:43:51;96344.09;;;-0.69;91.63
75013;BME280;63567;49.956;20.130;2024-01-07T02:46:17;96351.16;;;-0.62;91.78
75013;BME280;63567;49.956;20.130;2024-01-07T02:48:42;96356.59;;;-0.65;91.49
75013;BME280;63567;49.956;20.130;2024-01-07T02:51:08;96354.16;;;-0.66;91.26
75013;BME280;63567;49.956;20.130;2024-01-07T02:53:33;96361.09;;;-0.67;91.54
75013;BME280;63567;49.956;20.130;2024-01-07T02:55:59;96361.50;;;-0.71;90.92
75013;BME280;63567;49.956;20.130;2024-01-07T02:58:24;96351.41;;;-0.74;91.35
75013;BME280;63567;49.956;20.130;2024-01-07T03:00:49;96359.84;;;-0.72;91.62
75013;BME280;63567;49.956;20.130;2024-01-07T03:03:15;96365.03;;;-0.72;91.65
75013;BME280;63567;49.956;20.130;2024-01-07T03:05:40;96360.81;;;-0.73;91.66
75013;BME280;63567;49.956;20.130;2024-01-07T03:08:06;96367.72;;;-0.74;91.46
75013;BME280;63567;49.956;20.130;2024-01-07T03:10:31;96362.03;;;-0.77;91.66
75013;BME280;63567;49.956;20.130;2024-01-07T03:12:57;96363.81;;;-0.78;91.37
75013;BME280;63567;49.956;20.130;2024-01-07T03:15:22;96360.66;;;-0.81;91.81
75013;BME280;63567;49.956;20.130;2024-01-07T03:17:47;96349.75;;;-0.85;91.87
75013;BME280;63567;49.956;20.130;2024-01-07T03:20:12;96355.78;;;-0.85;91.52
75013;BME280;63567;49.956;20.130;2024-01-07T03:22:38;96357.94;;;-0.90;91.19
75013;BME280;63567;49.956;20.130;2024-01-07T03:25:03;96340.75;;;-1.00;91.27
75013;BME280;63567;49.956;20.130;2024-01-07T03:27:29;96347.84;;;-1.02;91.22
75013;BME280;63567;49.956;20.130;2024-01-07T03:29:54;96360.22;;;-0.96;90.97
75013;BME280;63567;49.956;20.130;2024-01-07T03:32:19;96367.84;;;-0.95;91.04
75013;BME280;63567;49.956;20.130;2024-01-07T03:34:44;96366.38;;;-0.97;90.96
75013;BME280;63567;49.956;20.130;2024-01-07T03:37:10;96354.78;;;-1.03;91.15
75013;BME280;63567;49.956;20.130;2024-01-07T03:39:35;96371.91;;;-1.02;91.44
75013;BME280;63567;49.956;20.130;2024-01-07T03:42:01;96369.47;;;-1.04;90.68
75013;BME280;63567;49.956;20.130;2024-01-07T03:44:26;96369.03;;;-1.09;90.75
75013;BME280;63567;49.956;20.130;2024-01-07T03:46:51;96368.22;;;-1.09;91.18
75013;BME280;63567;49.956;20.130;2024-01-07T03:49:17;96353.91;;;-1.23;90.85
75013;BME280;63567;49.956;20.130;2024-01-07T03:51:43;96362.53;;;-1.13;90.69
75013;BME280;63567;49.956;20.130;2024-01-07T03:54:09;96367.13;;;-1.16;90.71
75013;BME280;63567;49.956;20.130;2024-01-07T03:56:34;96376.09;;;-1.20;90.62
75013;BME280;63567;49.956;20.130;2024-01-07T03:58:59;96368.00;;;-1.37;90.39
75013;BME280;63567;49.956;20.130;2024-01-07T04:01:24;96363.78;;;-1.38;90.18
75013;BME280;63567;49.956;20.130;2024-01-07T04:03:50;96386.13;;;-1.27;90.18
75013;BME280;63567;49.956;20.130;2024-01-07T04:06:15;96382.97;;;-1.31;90.51
75013;BME280;63567;49.956;20.130;2024-01-07T04:08:40;96375.75;;;-1.37;90.48
75013;BME280;63567;49.956;20.130;2024-01-07T04:11:05;96362.13;;;-1.49;90.25
75013;BME280;63567;49.956;20.130;2024-01-07T04:13:31;96385.28;;;-1.37;89.91
75013;BME280;63567;49.956;20.130;2024-01-07T04:15:56;96395.72;;;-1.39;90.05
75013;BME280;63567;49.956;20.130;2024-01-07T04:18:21;96394.22;;;-1.41;90.34
75013;BME280;63567;49.956;20.130;2024-01-07T04:20:46;96380.88;;;-1.47;89.90
75013;BME280;63567;49.956;20.130;2024-01-07T04:23:12;96400.59;;;-1.46;90.01
75013;BME280;63567;49.956;20.130;2024-01-07T04:25:37;96395.81;;;-1.50;90.42
75013;BME280;63567;49.956;20.130;2024-01-07T04:28:03;96392.41;;;-1.51;89.87
75013;BME280;63567;49.956;20.130;2024-01-07T04:30:28;96392.94;;;-1.57;90.11
75013;BME280;63567;49.956;20.130;2024-01-07T04:32:54;96395.50;;;-1.57;89.87
75013;BME280;63567;49.956;20.130;2024-01-07T04:35:19;96397.28;;;-1.57;89.75
75013;BME280;63567;49.956;20.130;2024-01-07T04:37:44;96403.38;;;-1.58;90.17
75013;BME280;63567;49.956;20.130;2024-01-07T04:40:10;96397.56;;;-1.60;90.05
75013;BME280;63567;49.956;20.130;2024-01-07T04:42:35;96396.97;;;-1.64;89.66
75013;BME280;63567;49.956;20.130;2024-01-07T04:45:00;96407.31;;;-1.64;90.24
75013;BME280;63567;49.956;20.130;2024-01-07T04:47:30;96395.69;;;-1.79;90.17
75013;BME280;63567;49.956;20.130;2024-01-07T04:49:56;96406.81;;;-1.79;90.49
75013;BME280;63567;49.956;20.130;2024-01-07T04:52:22;96409.13;;;-1.76;90.51
75013;BME280;63567;49.956;20.130;2024-01-07T04:54:49;96407.31;;;-1.85;90.58
75013;BME280;63567;49.956;20.130;2024-01-07T04:57:15;96405.00;;;-1.88;90.41
75013;BME280;63567;49.956;20.130;2024-01-07T04:59:40;96418.09;;;-1.80;90.01
75013;BME280;63567;49.956;20.130;2024-01-07T05:02:05;96415.53;;;-1.80;90.62
75013;BME280;63567;49.956;20.130;2024-01-07T05:04:31;96417.25;;;-1.80;90.21
75013;BME280;63567;49.956;20.130;2024-01-07T05:06:57;96430.84;;;-1.78;90.30
75013;BME280;63567;49.956;20.130;2024-01-07T05:09:22;96438.59;;;-1.78;90.51
75013;BME280;63567;49.956;20.130;2024-01-07T05:11:47;96433.44;;;-1.78;90.26
75013;BME280;63567;49.956;20.130;2024-01-07T05:14:12;96414.75;;;-1.92;90.25
75013;BME280;63567;49.956;20.130;2024-01-07T05:16:38;96409.72;;;-1.93;90.56
75013;BME280;63567;49.956;20.130;2024-01-07T05:19:03;96427.72;;;-1.82;90.26
75013;BME280;63567;49.956;20.130;2024-01-07T05:21:28;96430.31;;;-1.82;90.48
75013;BME280;63567;49.956;20.130;2024-01-07T05:23:54;96433.81;;;-1.83;90.32
75013;BME280;63567;49.956;20.130;2024-01-07T05:26:19;96423.06;;;-1.88;90.58
75013;BME280;63567;49.956;20.130;2024-01-07T05:28:44;96399.75;;;-1.98;90.59
75013;BME280;63567;49.956;20.130;2024-01-07T05:31:19;96419.72;;;-2.00;90.48
75013;BME280;63567;49.956;20.130;2024-01-07T05:33:44;96436.66;;;-1.86;90.27
75013;BME280;63567;49.956;20.130;2024-01-07T05:36:11;96434.47;;;-1.91;90.60
75013;BME280;63567;49.956;20.130;2024-01-07T05:38:36;96418.22;;;-2.02;90.53
75013;BME280;63567;49.956;20.130;2024-01-07T05:41:01;96438.66;;;-1.90;90.75
75013;BME280;63567;49.956;20.130;2024-01-07T05:43:27;96436.91;;;-1.89;90.63
75013;BME280;63567;49.956;20.130;2024-01-07T05:45:52;96434.47;;;-1.91;90.82
75013;BME280;63567;49.956;20.130;2024-01-07T05:48:20;96436.34;;;-1.93;91.12
75013;BME280;63567;49.956;20.130;2024-01-07T05:50:46;96441.38;;;-1.91;90.91
75013;BME280;63567;49.956;20.130;2024-01-07T05:53:11;96420.78;;;-2.02;91.11
75013;BME280;63567;49.956;20.130;2024-01-07T05:55:36;96437.16;;;-1.92;90.80
75013;BME280;63567;49.956;20.130;2024-01-07T05:58:01;96446.53;;;-1.91;90.63
75013;BME280;63567;49.956;20.130;2024-01-07T06:00:27;96443.53;;;-1.96;91.33
75013;BME280;63567;49.956;20.130;2024-01-07T06:02:52;96447.59;;;-1.94;91.21
75013;BME280;63567;49.956;20.130;2024-01-07T06:05:17;96457.94;;;-1.94;90.70
75013;BME280;63567;49.956;20.130;2024-01-07T06:07:42;96460.50;;;-1.94;90.83
75013;BME280;63567;49.956;20.130;2024-01-07T06:10:08;96446.97;;;-2.07;91.07
75013;BME280;63567;49.956;20.130;2024-01-07T06:12:33;96458.88;;;-1.95;91.32
75013;BME280;63567;49.956;20.130;2024-01-07T06:14:58;96462.28;;;-1.94;91.18
75013;BME280;63567;49.956;20.130;2024-01-07T06:17:24;96441.13;;;-2.09;90.71
75013;BME280;63567;49.956;20.130;2024-01-07T06:19:49;96438.91;;;-2.14;90.68
75013;BME280;63567;49.956;20.130;2024-01-07T06:22:14;96471.09;;;-1.97;91.07
75013;BME280;63567;49.956;20.130;2024-01-07T06:24:39;96469.44;;;-1.98;91.03
75013;BME280;63567;49.956;20.130;2024-01-07T06:27:05;96474.59;;;-1.98;90.71
75013;BME280;63567;49.956;20.130;2024-01-07T06:29:30;96478.16;;;-1.99;90.98
75013;BME280;63567;49.956;20.130;2024-01-07T06:31:55;96484.13;;;-1.98;91.07
75013;BME280;63567;49.956;20.130;2024-01-07T06:34:20;96476.38;;;-1.98;90.80
75013;BME280;63567;49.956;20.130;2024-01-07T06:36:46;96472.50;;;-2.04;90.54
75013;BME280;63567;49.956;20.130;2024-01-07T06:39:11;96481.66;;;-2.00;90.90
75013;BME280;63567;49.956;20.130;2024-01-07T06:41:37;96466.47;;;-2.14;91.19
75013;BME280;63567;49.956;20.130;2024-01-07T06:44:02;96484.38;;;-2.01;91.09
75013;BME280;63567;49.956;20.130;2024-01-07T06:46:28;96482.59;;;-2.01;91.01
75013;BME280;63567;49.956;20.130;2024-01-07T06:48:53;96487.06;;;-2.03;90.87
75013;BME280;63567;49.956;20.130;2024-01-07T06:51:18;96487.06;;;-2.03;90.69
75013;BME280;63567;49.956;20.130;2024-01-07T06:53:43;96487.28;;;-2.06;90.92
75013;BME280;63567;49.956;20.130;2024-01-07T06:56:09;96471.06;;;-2.18;90.84
75013;BME280;63567;49.956;20.130;2024-01-07T06:58:34;96492.03;;;-2.11;91.21
75013;BME280;63567;49.956;20.130;2024-01-07T07:00:59;96500.91;;;-2.04;91.15
75013;BME280;63567;49.956;20.130;2024-01-07T07:03:25;96497.06;;;-2.10;91.33
75013;BME280;63567;49.956;20.130;2024-01-07T07:05:50;96503.63;;;-2.05;90.83
75013;BME280;63567;49.956;20.130;2024-01-07T07:08:16;96498.13;;;-2.12;91.11
75013;BME280;63567;49.956;20.130;2024-01-07T07:10:41;96486.78;;;-2.21;91.28
75013;BME280;63567;49.956;20.130;2024-01-07T07:13:06;96485.59;;;-2.17;91.33
75013;BME280;63567;49.956;20.130;2024-01-07T07:15:31;96507.28;;;-2.08;91.29
75013;BME280;63567;49.956;20.130;2024-01-07T07:17:57;96519.91;;;-2.05;91.33
75013;BME280;63567;49.956;20.130;2024-01-07T07:20:22;96514.75;;;-2.05;91.10
75013;BME280;63567;49.956;20.130;2024-01-07T07:22:47;96489.22;;;-2.19;90.90
75013;BME280;63567;49.956;20.130;2024-01-07T07:25:13;96506.06;;;-2.04;91.45
75013;BME280;63567;49.956;20.130;2024-01-07T07:27:38;96501.97;;;-2.07;91.42
75013;BME280;63567;49.956;20.130;2024-01-07T07:30:04;96524.00;;;-2.02;90.99
75013;BME280;63567;49.956;20.130;2024-01-07T07:32:30;96517.34;;;-2.05;90.93
75013;BME280;63567;49.956;20.130;2024-01-07T07:34:55;96520.50;;;-2.01;91.37
75013;BME280;63567;49.956;20.130;2024-01-07T07:37:20;96518.16;;;-2.04;91.43
75013;BME280;63567;49.956;20.130;2024-01-07T07:39:46;96502.72;;;-2.16;91.32
75013;BME280;63567;49.956;20.130;2024-01-07T07:42:11;96514.75;;;-2.05;91.27
75013;BME280;63567;49.956;20.130;2024-01-07T07:44:36;96524.81;;;-2.02;91.54
75013;BME280;63567;49.956;20.130;2024-01-07T07:47:01;96527.28;;;-2.00;90.89
75013;BME280;63567;49.956;20.130;2024-01-07T07:49:27;96529.75;;;-1.99;91.36
75013;BME280;63567;49.956;20.130;2024-01-07T07:51:52;96531.75;;;-2.02;91.07
75013;BME280;63567;49.956;20.130;2024-01-07T07:54:17;96544.28;;;-1.98;91.18
75013;BME280;63567;49.956;20.130;2024-01-07T07:56:43;96522.16;;;-2.12;91.33
75013;BME280;63567;49.956;20.130;2024-01-07T07:59:08;96545.94;;;-1.97;90.95
75013;BME280;63567;49.956;20.130;2024-01-07T08:01:34;96551.22;;;-1.98;90.77
75013;BME280;63567;49.956;20.130;2024-01-07T08:03:59;96550.41;;;-1.99;90.91
75013;BME280;63567;49.956;20.130;2024-01-07T08:06:24;96549.44;;;-1.98;90.64
75013;BME280;63567;49.956;20.130;2024-01-07T08:08:50;96554.59;;;-1.98;90.45
75013;BME280;63567;49.956;20.130;2024-01-07T08:11:15;96552.03;;;-1.98;90.50
75013;BME280;63567;49.956;20.130;2024-01-07T08:13:40;96557.88;;;-1.96;90.76
75013;BME280;63567;49.956;20.130;2024-01-07T08:16:06;96557.06;;;-1.96;90.74
75013;BME280;63567;49.956;20.130;2024-01-07T08:18:31;96574.06;;;-1.94;90.71
75013;BME280;63567;49.956;20.130;2024-01-07T08:20:57;96571.47;;;-1.94;90.58
75013;BME280;63567;49.956;20.130;2024-01-07T08:23:24;96563.75;;;-1.94;90.61
75013;BME280;63567;49.956;20.130;2024-01-07T08:25:49;96555.44;;;-1.97;90.59
75013;BME280;63567;49.956;20.130;2024-01-07T08:28:16;96550.63;;;-2.02;90.31
75013;BME280;63567;49.956;20.130;2024-01-07T08:30:41;96565.13;;;-1.90;90.55
75013;BME280;63567;49.956;20.130;2024-01-07T08:33:07;96543.03;;;-2.03;90.28
75013;BME280;63567;49.956;20.130;2024-01-07T08:35:32;96560.56;;;-1.86;90.62
75013;BME280;63567;49.956;20.130;2024-01-07T08:37:57;96562.19;;;-1.85;90.48
75013;BME280;63567;49.956;20.130;2024-01-07T08:40:22;96555.31;;;-1.96;90.43
75013;BME280;63567;49.956;20.130;2024-01-07T08:42:48;96564.88;;;-1.87;90.10
75013;BME280;63567;49.956;20.130;2024-01-07T08:45:13;96560.22;;;-1.93;90.69
75013;BME280;63567;49.956;20.130;2024-01-07T08:47:39;96583.31;;;-1.80;90.14
75013;BME280;63567;49.956;20.130;2024-01-07T08:50:05;96543.84;;;-2.03;90.56
75013;BME280;63567;49.956;20.130;2024-01-07T08:52:30;96585.63;;;-1.77;90.46
75013;BME280;63567;49.956;20.130;2024-01-07T08:54:56;96557.50;;;-1.91;90.30
75013;BME280;63567;49.956;20.130;2024-01-07T08:57:21;96584.69;;;-1.76;90.59
75013;BME280;63567;49.956;20.130;2024-01-07T08:59:46;96549.53;;;-1.88;90.57
75013;BME280;63567;49.956;20.130;2024-01-07T09:02:11;96583.50;;;-1.72;90.40
75013;BME280;63567;49.956;20.130;2024-01-07T09:04:37;96578.69;;;-1.76;90.77
75013;BME280;63567;49.956;20.130;2024-01-07T09:07:03;96562.06;;;-1.83;90.35
75013;BME280;63567;49.956;20.130;2024-01-07T09:09:28;96592.78;;;-1.69;90.74
75013;BME280;63567;49.956;20.130;2024-01-07T09:11:53;96587.63;;;-1.69;90.13
75013;BME280;63567;49.956;20.130;2024-01-07T09:14:21;96573.09;;;-1.81;90.36
75013;BME280;63567;49.956;20.130;2024-01-07T09:16:47;96589.94;;;-1.66;90.23
75013;BME280;63567;49.956;20.130;2024-01-07T09:19:12;96593.22;;;-1.64;90.05
75013;BME280;63567;49.956;20.130;2024-01-07T09:21:37;96586.28;;;-1.63;90.27
75013;BME280;63567;49.956;20.130;2024-01-07T09:24:03;96586.16;;;-1.62;90.09
75013;BME280;63567;49.956;20.130;2024-01-07T09:26:28;96588.63;;;-1.60;90.10
75013;BME280;63567;49.956;20.130;2024-01-07T09:28:53;96592.72;;;-1.58;90.05
75013;BME280;63567;49.956;20.130;2024-01-07T09:31:18;96587.69;;;-1.59;89.89
75013;BME280;63567;49.956;20.130;2024-01-07T09:33:44;96589.06;;;-1.55;89.91
75013;BME280;63567;49.956;20.130;2024-01-07T09:36:09;96587.31;;;-1.55;90.01
75013;BME280;63567;49.956;20.130;2024-01-07T09:38:35;96576.84;;;-1.53;89.91
75013;BME280;63567;49.956;20.130;2024-01-07T09:41:01;96574.88;;;-1.61;89.45
75013;BME280;63567;49.956;20.130;2024-01-07T09:43:26;96588.97;;;-1.54;89.58
75013;BME280;63567;49.956;20.130;2024-01-07T09:45:53;96588.13;;;-1.54;89.62
75013;BME280;63567;49.956;20.130;2024-01-07T09:48:19;96592.34;;;-1.53;89.51
75013;BME280;63567;49.956;20.130;2024-01-07T09:50:44;96588.97;;;-1.54;89.74
75013;BME280;63567;49.956;20.130;2024-01-07T09:53:15;96599.03;;;-1.51;89.47
75013;BME280;63567;49.956;20.130;2024-01-07T09:58:21;96588.69;;;-1.51;89.31
75013;BME280;63567;49.956;20.130;2024-01-07T10:00:46;96588.97;;;-1.54;89.68
75013;BME280;63567;49.956;20.130;2024-01-07T10:03:12;96568.91;;;-1.61;89.39
75013;BME280;63567;49.956;20.130;2024-01-07T10:05:37;96587.88;;;-1.51;89.36
75013;BME280;63567;49.956;20.130;2024-01-07T10:08:02;96580.88;;;-1.60;89.28
75013;BME280;63567;49.956;20.130;2024-01-07T10:10:28;96568.47;;;-1.67;89.16
75013;BME280;63567;49.956;20.130;2024-01-07T10:12:53;96586.38;;;-1.54;89.00
75013;BME280;63567;49.956;20.130;2024-01-07T10:15:21;96592.34;;;-1.53;89.12
75013;BME280;63567;49.956;20.130;2024-01-07T10:17:47;96590.84;;;-1.56;89.00
75013;BME280;63567;49.956;20.130;2024-01-07T10:20:13;96568.59;;;-1.68;88.81
75013;BME280;63567;49.956;20.130;2024-01-07T10:22:38;96589.06;;;-1.55;88.46
75013;BME280;63567;49.956;20.130;2024-01-07T10:25:05;96577.34;;;-1.59;88.91
75013;BME280;63567;49.956;20.130;2024-01-07T10:27:34;96578.75;;;-1.55;88.72
75013;BME280;63567;49.956;20.130;2024-01-07T10:30:01;96572.63;;;-1.54;88.55
75013;BME280;63567;49.956;20.130;2024-01-07T10:32:28;96571.00;;;-1.55;88.90
75013;BME280;63567;49.956;20.130;2024-01-07T10:35:00;96569.22;;;-1.55;88.99
75013;BME280;63567;49.956;20.130;2024-01-07T10:37:27;96572.50;;;-1.53;88.85
75013;BME280;63567;49.956;20.130;2024-01-07T10:39:53;96576.97;;;-1.55;88.65
75013;BME280;63567;49.956;20.130;2024-01-07T10:42:19;96564.94;;;-1.66;88.85
75013;BME280;63567;49.956;20.130;2024-01-07T10:44:44;96577.22;;;-1.58;88.78
75013;BME280;63567;49.956;20.130;2024-01-07T10:47:10;96571.69;;;-1.53;88.63
75013;BME280;63567;49.956;20.130;2024-01-07T10:49:39;96550.50;;;-1.68;88.77
75013;BME280;63567;49.956;20.130;2024-01-07T10:52:07;96548.63;;;-1.66;88.70
75013;BME280;63567;49.956;20.130;2024-01-07T10:54:34;96550.13;;;-1.63;88.86
75013;BME280;63567;49.956;20.130;2024-01-07T11:00:06;96577.19;;;-1.47;89.20
75013;BME280;63567;49.956;20.130;2024-01-07T11:02:40;96572.00;;;-1.47;89.23
75013;BME280;63567;49.956;20.130;2024-01-07T11:05:16;96573.63;;;-1.46;89.21
75013;BME280;63567;49.956;20.130;2024-01-07T11:07:45;96567.78;;;-1.48;89.21
75013;BME280;63567;49.956;20.130;2024-01-07T11:10:18;96574.34;;;-1.43;89.15
75013;BME280;63567;49.956;20.130;2024-01-07T11:12:53;96569.06;;;-1.42;89.24
75013;BME280;63567;49.956;20.130;2024-01-07T11:18:17;96574.22;;;-1.42;89.03
75013;BME280;63567;49.956;20.130;2024-01-07T11:20:44;96573.28;;;-1.41;89.15
75013;BME280;63567;49.956;20.130;2024-01-07T11:23:30;96576.91;;;-1.43;89.29
75013;BME280;63567;49.956;20.130;2024-01-07T11:25:57;96559.59;;;-1.53;88.97
75013;BME280;63567;49.956;20.130;2024-01-07T11:31:07;96549.25;;;-1.53;89.06
75013;BME280;63567;49.956;20.130;2024-01-07T11:33:34;96575.59;;;-1.38;89.06
75013;BME280;63567;49.956;20.130;2024-01-07T11:36:02;96573.03;;;-1.38;89.53
75013;BME280;63567;49.956;20.130;2024-01-07T11:38:28;96572.66;;;-1.33;89.37
75013;BME280;63567;49.956;20.130;2024-01-07T11:40:54;96573.47;;;-1.33;89.12
75013;BME280;63567;49.956;20.130;2024-01-07T11:43:20;96572.66;;;-1.33;89.07
75013;BME280;63567;49.956;20.130;2024-01-07T11:45:45;96554.63;;;-1.45;89.04
75013;BME280;63567;49.956;20.130;2024-01-07T11:48:11;96578.38;;;-1.30;88.96
75013;BME280;63567;49.956;20.130;2024-01-07T11:50:36;96577.44;;;-1.29;89.10
75013;BME280;63567;49.956;20.130;2024-01-07T11:53:01;96574.03;;;-1.29;89.03
75013;BME280;63567;49.956;20.130;2024-01-07T11:55:29;96561.03;;;-1.39;89.26
75013;BME280;63567;49.956;20.130;2024-01-07T11:57:57;96583.72;;;-1.21;89.27
75013;BME280;63567;49.956;20.130;2024-01-07T12:00:23;96581.97;;;-1.21;88.92
75013;BME280;63567;49.956;20.130;2024-01-07T12:02:48;96579.25;;;-1.19;89.07
75013;BME280;63567;49.956;20.130;2024-01-07T12:05:13;96578.81;;;-1.25;89.05
75013;BME280;63567;49.956;20.130;2024-01-07T12:07:41;96587.16;;;-1.21;88.75
75013;BME280;63567;49.956;20.130;2024-01-07T12:10:09;96583.19;;;-1.25;88.92
75013;BME280;63567;49.956;20.130;2024-01-07T12:12:38;96572.66;;;-1.33;88.95
75013;BME280;63567;49.956;20.130;2024-01-07T12:15:04;96592.31;;;-1.21;88.70
75013;BME280;63567;49.956;20.130;2024-01-07T12:17:30;96592.56;;;-1.24;89.03
75013;BME280;63567;49.956;20.130;2024-01-07T12:19:56;96600.19;;;-1.22;88.63
75013;BME280;63567;49.956;20.130;2024-01-07T12:22:21;96602.88;;;-1.24;88.52
75013;BME280;63567;49.956;20.130;2024-01-07T12:24:47;96609.13;;;-1.27;88.50
75013;BME280;63567;49.956;20.130;2024-01-07T12:27:24;96608.44;;;-1.29;88.56
75013;BME280;63567;49.956;20.130;2024-01-07T12:29:55;96602.47;;;-1.29;88.51
75013;BME280;63567;49.956;20.130;2024-01-07T12:32:20;96613.72;;;-1.30;87.99
75013;BME280;63567;49.956;20.130;2024-01-07T12:34:46;96605.31;;;-1.32;88.08
75013;BME280;63567;49.956;20.130;2024-01-07T12:37:14;96609.78;;;-1.34;87.86
75013;BME280;63567;49.956;20.130;2024-01-07T12:39:40;96617.75;;;-1.37;88.11
75013;BME280;63567;49.956;20.130;2024-01-07T12:42:05;96612.84;;;-1.40;87.77
75013;BME280;63567;49.956;20.130;2024-01-07T12:44:32;96621.53;;;-1.41;87.69
75013;BME280;63567;49.956;20.130;2024-01-07T12:46:57;96614.03;;;-1.45;87.87
75013;BME280;63567;49.956;20.130;2024-01-07T12:49:23;96625.44;;;-1.47;87.68
75013;BME280;63567;49.956;20.130;2024-01-07T12:51:48;96615.22;;;-1.49;87.94
75013;BME280;63567;49.956;20.130;2024-01-07T12:54:13;96619.69;;;-1.51;87.41